sensor_id;sensor_type;location;lat;lon;timestamp;temperature;humidity
17172;DHT22;8701;50.150;8.756;2024-03-22T00:03:17;10.90;99.90
17172;DHT22;8701;50.150;8.756;2024-03-22T00:07:20;10.80;99.90
17172;DHT22;8701;50.150;8.756;2024-03-22T00:11:22;10.70;99.90
17172;DHT22;8701;50.150;8.756;2024-03-22T00:15:25;10.70;99.90
17172;DHT22;8701;50.150;8.756;2024-03-22T00:19:28;10.70;99.90
17172;DHT22;8701;50.150;8.756;2024-03-22T00:23:30;10.60;99.90
17172;DHT22;8701;50.150;8.756;2024-03-22T00:27:32;10.50;99.90
17172;DHT22;8701;50.150;8.756;2024-03-22T00:31:36;10.40;99.90
17172;DHT22;8701;50.150;8.756;2024-03-22T00:35:38;10.30;99.90
17172;DHT22;8701;50.150;8.756;2024-03-22T00:39:40;10.40;99.90
17172;DHT22;8701;50.150;8.756;2024-03-22T00:43:42;10.30;99.90
17172;DHT22;8701;50.150;8.756;2024-03-22T00:47:46;10.20;99.90
17172;DHT22;8701;50.150;8.756;2024-03-22T00:51:48;10.20;99.90
17172;DHT22;8701;50.150;8.756;2024-03-22T00:55:50;10.20;99.90
17172;DHT22;8701;50.150;8.756;2024-03-22T00:59:53;10.10;99.90
17172;DHT22;8701;50.150;8.756;2024-03-22T01:03:56;10.10;99.90
17172;DHT22;8701;50.150;8.756;2024-03-22T01:07:58;10.00;99.90
17172;DHT22;8701;50.150;8.756;2024-03-22T01:12:00;10.00;99.90
17172;DHT22;8701;50.150;8.756;2024-03-22T01:16:03;10.00;99.90
17172;DHT22;8701;50.150;8.756;2024-03-22T01:20:08;9.90;99.90
17172;DHT22;8701;50.150;8.756;2024-03-22T01:24:10;9.90;99.90
17172;DHT22;8701;50.150;8.756;2024-03-22T01:28:12;9.90;99.90
17172;DHT22;8701;50.150;8.756;2024-03-22T01:32:15;9.90;99.90
17172;DHT22;8701;50.150;8.756;2024-03-22T01:36:18;9.80;99.90
17172;DHT22;8701;50.150;8.756;2024-03-22T01:40:21;9.80;99.90
17172;DHT22;8701;50.150;8.756;2024-03-22T01:44:27;9.80;99.90
17172;DHT22;8701;50.150;8.756;2024-03-22T01:48:29;9.80;99.90
17172;DHT22;8701;50.150;8.756;2024-03-22T01:52:33;9.80;99.90
17172;DHT22;8701;50.150;8.756;2024-03-22T01:56:36;9.70;99.90
17172;DHT22;8701;50.150;8.756;2024-03-22T02:00:39;9.50;99.90
17172;DHT22;8701;50.150;8.756;2024-03-22T02:04:41;9.50;99.90
17172;DHT22;8701;50.150;8.756;2024-03-22T02:08:45;9.40;99.90
17172;DHT22;8701;50.150;8.756;2024-03-22T02:12:47;9.40;99.90
17172;DHT22;8701;50.150;8.756;2024-03-22T02:16:49;9.30;99.90
17172;DHT22;8701;50.150;8.756;2024-03-22T02:20:50;9.30;99.90
17172;DHT22;8701;50.150;8.756;2024-03-22T02:24:54;9.30;99.90
17172;DHT22;8701;50.150;8.756;2024-03-22T02:28:56;9.30;99.90
17172;DHT22;8701;50.150;8.756;2024-03-22T02:32:58;9.20;99.90
17172;DHT22;8701;50.150;8.756;2024-03-22T02:37:00;9.20;99.90
17172;DHT22;8701;50.150;8.756;2024-03-22T02:41:05;9.20;99.90
17172;DHT22;8701;50.150;8.756;2024-03-22T02:45:08;9.10;99.90
17172;DHT22;8701;50.150;8.756;2024-03-22T02:49:10;9.10;99.90
17172;DHT22;8701;50.150;8.756;2024-03-22T02:53:13;9.00;99.90
17172;DHT22;8701;50.150;8.756;2024-03-22T02:57:16;8.90;99.90
17172;DHT22;8701;50.150;8.756;2024-03-22T03:01:20;8.80;99.90
17172;DHT22;8701;50.150;8.756;2024-03-22T03:05:23;8.80;99.90
17172;DHT22;8701;50.150;8.756;2024-03-22T03:09:26;8.90;99.90
17172;DHT22;8701;50.150;8.756;2024-03-22T03:13:29;8.90;99.90
17172;DHT22;8701;50.150;8.756;2024-03-22T03:17:31;8.90;99.90
17172;DHT22;8701;50.150;8.756;2024-03-22T03:21:34;8.80;99.90
17172;DHT22;8701;50.150;8.756;2024-03-22T03:25:36;8.60;99.90
17172;DHT22;8701;50.150;8.756;2024-03-22T03:29:39;8.60;99.90
17172;DHT22;8701;50.150;8.756;2024-03-22T03:33:42;8.60;99.90
17172;DHT22;8701;50.150;8.756;2024-03-22T03:37:44;8.60;99.90
17172;DHT22;8701;50.150;8.756;2024-03-22T03:41:46;8.70;99.90
17172;DHT22;8701;50.150;8.756;2024-03-22T03:45:50;8.60;99.90
17172;DHT22;8701;50.150;8.756;2024-03-22T03:49:52;8.60;99.90
17172;DHT22;8701;50.150;8.756;2024-03-22T03:53:54;8.50;99.90
17172;DHT22;8701;50.150;8.756;2024-03-22T03:57:56;8.50;99.90
17172;DHT22;8701;50.150;8.756;2024-03-22T04:02:00;8.40;99.90
17172;DHT22;8701;50.150;8.756;2024-03-22T04:06:02;8.50;99.90
17172;DHT22;8701;50.150;8.756;2024-03-22T04:10:05;8.50;99.90
17172;DHT22;8701;50.150;8.756;2024-03-22T04:14:08;8.50;99.90
17172;DHT22;8701;50.150;8.756;2024-03-22T04:18:11;8.50;99.90
17172;DHT22;8701;50.150;8.756;2024-03-22T04:22:13;8.60;99.90
17172;DHT22;8701;50.150;8.756;2024-03-22T04:26:15;8.50;99.90
17172;DHT22;8701;50.150;8.756;2024-03-22T04:30:18;8.50;99.90
17172;DHT22;8701;50.150;8.756;2024-03-22T04:34:21;8.40;99.90
17172;DHT22;8701;50.150;8.756;2024-03-22T04:38:24;8.40;99.90
17172;DHT22;8701;50.150;8.756;2024-03-22T04:42:26;8.40;99.90
17172;DHT22;8701;50.150;8.756;2024-03-22T04:46:28;8.40;99.90
17172;DHT22;8701;50.150;8.756;2024-03-22T04:50:32;8.40;99.90
17172;DHT22;8701;50.150;8.756;2024-03-22T04:54:34;8.40;99.90
17172;DHT22;8701;50.150;8.756;2024-03-22T04:58:36;8.40;99.90
17172;DHT22;8701;50.150;8.756;2024-03-22T05:02:38;8.50;99.90
17172;DHT22;8701;50.150;8.756;2024-03-22T05:06:43;8.50;99.90
17172;DHT22;8701;50.150;8.756;2024-03-22T05:10:45;8.60;99.90
17172;DHT22;8701;50.150;8.756;2024-03-22T05:14:47;8.60;99.90
17172;DHT22;8701;50.150;8.756;2024-03-22T05:18:49;8.60;99.90
17172;DHT22;8701;50.150;8.756;2024-03-22T05:22:53;8.60;99.90
17172;DHT22;8701;50.150;8.756;2024-03-22T05:26:55;8.60;99.90
17172;DHT22;8701;50.150;8.756;2024-03-22T05:30:57;8.60;99.90
17172;DHT22;8701;50.150;8.756;2024-03-22T05:34:59;8.70;99.90
17172;DHT22;8701;50.150;8.756;2024-03-22T05:39:03;8.70;99.90
17172;DHT22;8701;50.150;8.756;2024-03-22T05:43:05;8.70;99.90
17172;DHT22;8701;50.150;8.756;2024-03-22T05:47:07;8.60;99.90
17172;DHT22;8701;50.150;8.756;2024-03-22T05:51:09;8.70;99.90
17172;DHT22;8701;50.150;8.756;2024-03-22T05:55:13;8.80;99.90
17172;DHT22;8701;50.150;8.756;2024-03-22T05:59:15;8.70;99.90
17172;DHT22;8701;50.150;8.756;2024-03-22T06:03:17;8.70;99.90
17172;DHT22;8701;50.150;8.756;2024-03-22T06:07:20;8.70;99.90
17172;DHT22;8701;50.150;8.756;2024-03-22T06:11:23;8.60;99.90
17172;DHT22;8701;50.150;8.756;2024-03-22T06:15:26;8.60;99.90
17172;DHT22;8701;50.150;8.756;2024-03-22T06:19:28;8.70;99.90
17172;DHT22;8701;50.150;8.756;2024-03-22T06:23:29;8.90;99.90
17172;DHT22;8701;50.150;8.756;2024-03-22T06:27:33;9.00;99.90
17172;DHT22;8701;50.150;8.756;2024-03-22T06:31:35;9.10;99.90
17172;DHT22;8701;50.150;8.756;2024-03-22T06:35:37;9.20;99.90
17172;DHT22;8701;50.150;8.756;2024-03-22T06:39:39;9.30;99.90
17172;DHT22;8701;50.150;8.756;2024-03-22T06:43:43;9.40;99.90
17172;DHT22;8701;50.150;8.756;2024-03-22T06:47:45;9.50;99.90
17172;DHT22;8701;50.150;8.756;2024-03-22T06:51:47;9.60;99.90
17172;DHT22;8701;50.150;8.756;2024-03-22T06:55:49;9.70;99.90
17172;DHT22;8701;50.150;8.756;2024-03-22T06:59:53;9.90;99.90
17172;DHT22;8701;50.150;8.756;2024-03-22T07:03:55;10.00;99.90
17172;DHT22;8701;50.150;8.756;2024-03-22T07:07:57;10.20;99.90
17172;DHT22;8701;50.150;8.756;2024-03-22T07:11:59;10.40;99.90
17172;DHT22;8701;50.150;8.756;2024-03-22T07:16:03;10.50;99.90
17172;DHT22;8701;50.150;8.756;2024-03-22T07:20:07;10.70;99.90
17172;DHT22;8701;50.150;8.756;2024-03-22T07:24:09;10.80;99.90
17172;DHT22;8701;50.150;8.756;2024-03-22T07:28:10;10.90;99.90
17172;DHT22;8701;50.150;8.756;2024-03-22T07:32:14;10.90;99.90
17172;DHT22;8701;50.150;8.756;2024-03-22T07:36:16;10.90;99.90
17172;DHT22;8701;50.150;8.756;2024-03-22T07:40:18;10.90;99.90
17172;DHT22;8701;50.150;8.756;2024-03-22T07:44:21;10.90;99.90
17172;DHT22;8701;50.150;8.756;2024-03-22T07:48:27;11.00;99.90
17172;DHT22;8701;50.150;8.756;2024-03-22T07:52:29;11.10;99.90
17172;DHT22;8701;50.150;8.756;2024-03-22T07:56:32;11.20;99.90
17172;DHT22;8701;50.150;8.756;2024-03-22T08:00:34;11.30;99.90
17172;DHT22;8701;50.150;8.756;2024-03-22T08:04:37;11.40;99.90
17172;DHT22;8701;50.150;8.756;2024-03-22T08:08:40;11.50;99.90
17172;DHT22;8701;50.150;8.756;2024-03-22T08:12:42;11.40;99.90
17172;DHT22;8701;50.150;8.756;2024-03-22T08:16:44;11.50;99.90
17172;DHT22;8701;50.150;8.756;2024-03-22T08:20:48;11.50;99.90
17172;DHT22;8701;50.150;8.756;2024-03-22T08:24:50;11.50;99.90
17172;DHT22;8701;50.150;8.756;2024-03-22T08:28:52;11.50;99.90
17172;DHT22;8701;50.150;8.756;2024-03-22T08:32:54;11.60;99.90
17172;DHT22;8701;50.150;8.756;2024-03-22T08:36:58;11.60;99.90
17172;DHT22;8701;50.150;8.756;2024-03-22T08:41:00;11.60;99.90
17172;DHT22;8701;50.150;8.756;2024-03-22T08:45:03;11.70;99.90
17172;DHT22;8701;50.150;8.756;2024-03-22T08:49:05;11.80;99.90
17172;DHT22;8701;50.150;8.756;2024-03-22T08:53:09;11.80;99.90
17172;DHT22;8701;50.150;8.756;2024-03-22T08:57:11;12.00;99.90
17172;DHT22;8701;50.150;8.756;2024-03-22T09:01:14;12.10;99.90
17172;DHT22;8701;50.150;8.756;2024-03-22T09:05:16;12.40;99.90
17172;DHT22;8701;50.150;8.756;2024-03-22T09:09:20;12.70;99.90
17172;DHT22;8701;50.150;8.756;2024-03-22T09:13:23;13.20;99.90
17172;DHT22;8701;50.150;8.756;2024-03-22T09:17:25;13.80;99.90
17172;DHT22;8701;50.150;8.756;2024-03-22T09:21:27;14.30;99.90
17172;DHT22;8701;50.150;8.756;2024-03-22T09:25:31;14.60;99.90
17172;DHT22;8701;50.150;8.756;2024-03-22T09:29:34;14.80;99.90
17172;DHT22;8701;50.150;8.756;2024-03-22T09:33:37;14.80;99.90
17172;DHT22;8701;50.150;8.756;2024-03-22T09:37:39;14.80;99.90
17172;DHT22;8701;50.150;8.756;2024-03-22T09:41:43;15.10;99.90
17172;DHT22;8701;50.150;8.756;2024-03-22T09:45:46;15.30;99.90
17172;DHT22;8701;50.150;8.756;2024-03-22T09:49:48;15.60;99.90
17172;DHT22;8701;50.150;8.756;2024-03-22T09:53:52;15.70;99.90
17172;DHT22;8701;50.150;8.756;2024-03-22T09:57:57;15.50;99.90
17172;DHT22;8701;50.150;8.756;2024-03-22T10:01:59;15.40;99.90
17172;DHT22;8701;50.150;8.756;2024-03-22T10:06:04;15.40;99.90
17172;DHT22;8701;50.150;8.756;2024-03-22T10:10:07;15.50;99.90
17172;DHT22;8701;50.150;8.756;2024-03-22T10:14:11;15.80;99.90
17172;DHT22;8701;50.150;8.756;2024-03-22T10:18:14;16.10;99.90
17172;DHT22;8701;50.150;8.756;2024-03-22T10:22:16;16.80;99.90
17172;DHT22;8701;50.150;8.756;2024-03-22T10:26:19;17.10;99.90
17172;DHT22;8701;50.150;8.756;2024-03-22T10:30:23;17.40;99.90
17172;DHT22;8701;50.150;8.756;2024-03-22T10:34:26;17.30;99.90
17172;DHT22;8701;50.150;8.756;2024-03-22T10:38:30;17.40;99.90
17172;DHT22;8701;50.150;8.756;2024-03-22T10:42:32;17.60;99.90
17172;DHT22;8701;50.150;8.756;2024-03-22T10:46:37;18.30;99.90
17172;DHT22;8701;50.150;8.756;2024-03-22T10:50:42;18.90;99.90
17172;DHT22;8701;50.150;8.756;2024-03-22T10:54:45;19.70;99.90
17172;DHT22;8701;50.150;8.756;2024-03-22T10:58:49;20.70;99.90
17172;DHT22;8701;50.150;8.756;2024-03-22T11:02:55;20.90;99.90
17172;DHT22;8701;50.150;8.756;2024-03-22T11:06:57;19.70;99.90
17172;DHT22;8701;50.150;8.756;2024-03-22T11:11:10;19.20;99.90
17172;DHT22;8701;50.150;8.756;2024-03-22T11:15:12;20.00;99.90
17172;DHT22;8701;50.150;8.756;2024-03-22T11:19:16;21.60;99.90
17172;DHT22;8701;50.150;8.756;2024-03-22T11:23:18;21.60;99.90
17172;DHT22;8701;50.150;8.756;2024-03-22T11:27:20;22.40;99.90
17172;DHT22;8701;50.150;8.756;2024-03-22T11:31:23;21.70;99.90
17172;DHT22;8701;50.150;8.756;2024-03-22T11:35:29;20.50;99.90
17172;DHT22;8701;50.150;8.756;2024-03-22T11:39:31;19.90;99.90
17172;DHT22;8701;50.150;8.756;2024-03-22T11:43:35;19.80;99.90
17172;DHT22;8701;50.150;8.756;2024-03-22T11:47:37;19.50;99.90
17172;DHT22;8701;50.150;8.756;2024-03-22T11:51:41;19.00;99.90
17172;DHT22;8701;50.150;8.756;2024-03-22T11:55:43;18.60;99.90
17172;DHT22;8701;50.150;8.756;2024-03-22T11:59:46;18.40;99.90
17172;DHT22;8701;50.150;8.756;2024-03-22T12:03:48;18.40;99.90
17172;DHT22;8701;50.150;8.756;2024-03-22T12:07:52;18.50;99.90
17172;DHT22;8701;50.150;8.756;2024-03-22T12:11:55;18.50;99.90
17172;DHT22;8701;50.150;8.756;2024-03-22T12:15:57;18.60;99.90
17172;DHT22;8701;50.150;8.756;2024-03-22T12:20:00;19.10;99.90
17172;DHT22;8701;50.150;8.756;2024-03-22T12:24:04;19.40;99.90
17172;DHT22;8701;50.150;8.756;2024-03-22T12:28:06;20.40;99.90
17172;DHT22;8701;50.150;8.756;2024-03-22T12:32:08;20.90;99.90
17172;DHT22;8701;50.150;8.756;2024-03-22T12:36:11;20.90;99.90
17172;DHT22;8701;50.150;8.756;2024-03-22T12:40:15;20.40;99.90
17172;DHT22;8701;50.150;8.756;2024-03-22T12:44:17;19.70;99.90
17172;DHT22;8701;50.150;8.756;2024-03-22T12:48:19;19.30;99.90
17172;DHT22;8701;50.150;8.756;2024-03-22T12:52:22;19.10;99.90
17172;DHT22;8701;50.150;8.756;2024-03-22T12:56:25;19.00;99.90
17172;DHT22;8701;50.150;8.756;2024-03-22T13:00:28;18.70;99.90
17172;DHT22;8701;50.150;8.756;2024-03-22T13:04:30;18.60;99.90
17172;DHT22;8701;50.150;8.756;2024-03-22T13:08:33;18.30;99.90
17172;DHT22;8701;50.150;8.756;2024-03-22T13:12:36;18.10;99.90
17172;DHT22;8701;50.150;8.756;2024-03-22T13:16:38;18.20;99.90
17172;DHT22;8701;50.150;8.756;2024-03-22T13:20:41;18.40;99.90
17172;DHT22;8701;50.150;8.756;2024-03-22T13:24:43;18.40;99.90
17172;DHT22;8701;50.150;8.756;2024-03-22T13:28:47;18.40;99.90
17172;DHT22;8701;50.150;8.756;2024-03-22T13:32:49;18.30;99.90
17172;DHT22;8701;50.150;8.756;2024-03-22T13:36:51;18.40;99.90
17172;DHT22;8701;50.150;8.756;2024-03-22T13:40:54;18.30;99.90
17172;DHT22;8701;50.150;8.756;2024-03-22T13:44:58;18.30;99.90
17172;DHT22;8701;50.150;8.756;2024-03-22T13:49:00;18.30;99.90
17172;DHT22;8701;50.150;8.756;2024-03-22T13:53:03;18.10;99.90
17172;DHT22;8701;50.150;8.756;2024-03-22T13:57:05;18.10;99.90
17172;DHT22;8701;50.150;8.756;2024-03-22T14:01:09;17.90;99.90
17172;DHT22;8701;50.150;8.756;2024-03-22T14:05:12;17.80;99.90
17172;DHT22;8701;50.150;8.756;2024-03-22T14:09:14;17.60;99.90
17172;DHT22;8701;50.150;8.756;2024-03-22T14:13:16;17.50;99.90
17172;DHT22;8701;50.150;8.756;2024-03-22T14:17:20;17.50;99.90
17172;DHT22;8701;50.150;8.756;2024-03-22T14:21:22;17.40;99.90
17172;DHT22;8701;50.150;8.756;2024-03-22T14:25:26;17.40;99.90
17172;DHT22;8701;50.150;8.756;2024-03-22T14:29:29;17.40;99.90
17172;DHT22;8701;50.150;8.756;2024-03-22T14:33:32;17.40;99.90
17172;DHT22;8701;50.150;8.756;2024-03-22T14:37:35;17.40;99.90
17172;DHT22;8701;50.150;8.756;2024-03-22T14:41:37;17.30;99.90
17172;DHT22;8701;50.150;8.756;2024-03-22T14:45:39;17.30;99.90
17172;DHT22;8701;50.150;8.756;2024-03-22T14:49:43;17.30;99.90
17172;DHT22;8701;50.150;8.756;2024-03-22T14:53:45;17.20;99.90
17172;DHT22;8701;50.150;8.756;2024-03-22T14:57:47;17.20;99.90
17172;DHT22;8701;50.150;8.756;2024-03-22T15:01:50;17.20;99.90
17172;DHT22;8701;50.150;8.756;2024-03-22T15:05:56;17.20;99.90
17172;DHT22;8701;50.150;8.756;2024-03-22T15:10:00;17.20;99.90
17172;DHT22;8701;50.150;8.756;2024-03-22T15:14:02;17.10;99.90
17172;DHT22;8701;50.150;8.756;2024-03-22T15:18:05;17.20;99.90
17172;DHT22;8701;50.150;8.756;2024-03-22T15:22:08;17.20;99.90
17172;DHT22;8701;50.150;8.756;2024-03-22T15:26:11;17.20;99.90
17172;DHT22;8701;50.150;8.756;2024-03-22T15:30:14;17.10;99.90
17172;DHT22;8701;50.150;8.756;2024-03-22T15:34:16;17.20;99.90
17172;DHT22;8701;50.150;8.756;2024-03-22T15:38:19;17.20;99.90
17172;DHT22;8701;50.150;8.756;2024-03-22T15:42:22;17.20;99.90
17172;DHT22;8701;50.150;8.756;2024-03-22T15:46:24;17.10;99.90
17172;DHT22;8701;50.150;8.756;2024-03-22T15:50:27;17.00;99.90
17172;DHT22;8701;50.150;8.756;2024-03-22T15:54:30;16.90;99.90
17172;DHT22;8701;50.150;8.756;2024-03-22T15:58:32;16.90;99.90
17172;DHT22;8701;50.150;8.756;2024-03-22T16:02:35;16.90;99.90
17172;DHT22;8701;50.150;8.756;2024-03-22T16:06:37;17.00;99.90
17172;DHT22;8701;50.150;8.756;2024-03-22T16:10:40;17.00;99.90
17172;DHT22;8701;50.150;8.756;2024-03-22T16:14:43;17.00;99.90
17172;DHT22;8701;50.150;8.756;2024-03-22T16:18:45;17.00;99.90
17172;DHT22;8701;50.150;8.756;2024-03-22T16:22:47;17.00;99.90
17172;DHT22;8701;50.150;8.756;2024-03-22T16:26:51;17.00;99.90
17172;DHT22;8701;50.150;8.756;2024-03-22T16:30:53;17.00;99.90
17172;DHT22;8701;50.150;8.756;2024-03-22T16:34:55;17.00;99.90
17172;DHT22;8701;50.150;8.756;2024-03-22T16:38:57;17.00;99.90
17172;DHT22;8701;50.150;8.756;2024-03-22T16:43:01;16.90;99.90
17172;DHT22;8701;50.150;8.756;2024-03-22T16:47:03;16.90;99.90
17172;DHT22;8701;50.150;8.756;2024-03-22T16:51:07;16.80;99.90
17172;DHT22;8701;50.150;8.756;2024-03-22T16:55:09;16.80;99.90
17172;DHT22;8701;50.150;8.756;2024-03-22T16:59:13;16.70;99.90
17172;DHT22;8701;50.150;8.756;2024-03-22T17:03:17;16.60;99.90
17172;DHT22;8701;50.150;8.756;2024-03-22T17:07:19;16.70;99.90
17172;DHT22;8701;50.150;8.756;2024-03-22T17:11:21;16.60;99.90
17172;DHT22;8701;50.150;8.756;2024-03-22T17:15:26;16.50;99.90
17172;DHT22;8701;50.150;8.756;2024-03-22T17:19:28;16.40;99.90
17172;DHT22;8701;50.150;8.756;2024-03-22T17:23:31;16.30;99.90
17172;DHT22;8701;50.150;8.756;2024-03-22T17:27:33;16.20;99.90
17172;DHT22;8701;50.150;8.756;2024-03-22T17:31:36;16.20;99.90
17172;DHT22;8701;50.150;8.756;2024-03-22T17:35:39;16.10;99.90
17172;DHT22;8701;50.150;8.756;2024-03-22T17:39:41;16.00;99.90
17172;DHT22;8701;50.150;8.756;2024-03-22T17:43:44;15.90;99.90
17172;DHT22;8701;50.150;8.756;2024-03-22T17:47:49;15.80;99.90
17172;DHT22;8701;50.150;8.756;2024-03-22T17:51:51;15.70;99.90
17172;DHT22;8701;50.150;8.756;2024-03-22T17:55:53;15.50;99.90
17172;DHT22;8701;50.150;8.756;2024-03-22T17:59:55;15.40;99.90
17172;DHT22;8701;50.150;8.756;2024-03-22T18:04:00;15.20;99.90
17172;DHT22;8701;50.150;8.756;2024-03-22T18:08:02;15.00;99.90
17172;DHT22;8701;50.150;8.756;2024-03-22T18:12:05;14.90;99.90
17172;DHT22;8701;50.150;8.756;2024-03-22T18:16:08;14.80;99.90
17172;DHT22;8701;50.150;8.756;2024-03-22T18:20:11;14.70;99.90
17172;DHT22;8701;50.150;8.756;2024-03-22T18:24:17;14.60;99.90
17172;DHT22;8701;50.150;8.756;2024-03-22T18:28:19;14.50;99.90
17172;DHT22;8701;50.150;8.756;2024-03-22T18:32:22;14.30;99.90
17172;DHT22;8701;50.150;8.756;2024-03-22T18:36:26;14.30;99.90
17172;DHT22;8701;50.150;8.756;2024-03-22T18:40:28;14.10;99.90
17172;DHT22;8701;50.150;8.756;2024-03-22T18:44:30;14.00;99.90
17172;DHT22;8701;50.150;8.756;2024-03-22T18:48:35;14.00;99.90
17172;DHT22;8701;50.150;8.756;2024-03-22T18:52:40;13.90;99.90
17172;DHT22;8701;50.150;8.756;2024-03-22T18:56:43;13.90;99.90
17172;DHT22;8701;50.150;8.756;2024-03-22T19:00:45;13.80;99.90
17172;DHT22;8701;50.150;8.756;2024-03-22T19:04:47;13.60;99.90
17172;DHT22;8701;50.150;8.756;2024-03-22T19:08:51;13.60;99.90
17172;DHT22;8701;50.150;8.756;2024-03-22T19:12:54;13.50;99.90
17172;DHT22;8701;50.150;8.756;2024-03-22T19:16:57;13.50;99.90
17172;DHT22;8701;50.150;8.756;2024-03-22T19:20:59;13.30;99.90
17172;DHT22;8701;50.150;8.756;2024-03-22T19:25:04;13.30;99.90
17172;DHT22;8701;50.150;8.756;2024-03-22T19:29:10;13.20;99.90
17172;DHT22;8701;50.150;8.756;2024-03-22T19:33:13;13.20;99.90
17172;DHT22;8701;50.150;8.756;2024-03-22T19:37:16;13.10;99.90
17172;DHT22;8701;50.150;8.756;2024-03-22T19:41:20;13.10;99.90
17172;DHT22;8701;50.150;8.756;2024-03-22T19:45:21;13.10;99.90
17172;DHT22;8701;50.150;8.756;2024-03-22T19:49:23;13.00;99.90
17172;DHT22;8701;50.150;8.756;2024-03-22T19:53:25;12.90;99.90
17172;DHT22;8701;50.150;8.756;2024-03-22T19:57:29;12.90;99.90
17172;DHT22;8701;50.150;8.756;2024-03-22T20:01:31;12.80;99.90
17172;DHT22;8701;50.150;8.756;2024-03-22T20:05:34;12.70;99.90
17172;DHT22;8701;50.150;8.756;2024-03-22T20:09:36;12.70;99.90
17172;DHT22;8701;50.150;8.756;2024-03-22T20:13:39;12.60;99.90
17172;DHT22;8701;50.150;8.756;2024-03-22T20:17:42;12.60;99.90
17172;DHT22;8701;50.150;8.756;2024-03-22T20:21:44;12.40;99.90
17172;DHT22;8701;50.150;8.756;2024-03-22T20:25:46;12.40;99.90
17172;DHT22;8701;50.150;8.756;2024-03-22T20:29:50;12.40;99.90
17172;DHT22;8701;50.150;8.756;2024-03-22T20:33:52;12.40;99.90
17172;DHT22;8701;50.150;8.756;2024-03-22T20:37:56;12.40;99.90
